• Join FlightAware (Why Join?)
  • Login
  • US Flag 
05:17AM EST


 

Airport Tracker/Info


-or-


 

Live Flight TrackerFlight Track Log ✈ UAL978 ✈ 10-Jul-2013 ✈ SBGR / GRU - KIAH

Flight Track Log - Related Links

Times and Time Zones

All times are in EDT time to prevent confusion due to time zone crossing. See the UAL978 flight status page for this flight to view local times or setup timezone preferences in your user account.

Time Position Orientation Groundspeed Altitude Reporting Facility
EDT Latitude Longitude Course Direction KTS MPH feet Rate Location/Type
07:56PM -23.4310 -46.4830 North 3 3  Level FlightAware
08:00PM -23.4310 -46.4840 270° West 8 9 420 Level FlightAware
08:00PM -23.4320 -46.4840 180° South 6 7 900 Level FlightAware
08:00PM -23.4330 -46.4840 180° South 9 10 1,140 Level FlightAware
08:01PM -23.4340 -46.4830 137° Southeast 10 12 1,320 Level FlightAware
08:02PM -23.4340 -46.4810 90° East 48 55 1,740 Level FlightAware
08:03PM -23.4250 -46.4490 73° East 186 214 2,800 3,420 Climbing FlightAware
08:03PM -23.4210 -46.4220 81° East 178 205 4,400 2,520 Climbing FlightAware
08:03PM -23.4260 -46.4090 113° Southeast 191 220 4,700 1,680 Climbing FlightAware
08:03PM -23.4340 -46.4030 145° Southeast 194 223 5,100 2,100 Climbing FlightAware
08:04PM -23.4430 -46.4000 163° South 195 224 5,400 1,980 Climbing FlightAware
08:04PM -23.4610 -46.4090 205° Southwest 208 239 6,100 1,980 Climbing FlightAware
08:04PM -23.4680 -46.4250 244° Southwest 217 250 6,600 1,440 Climbing FlightAware
08:05PM -23.4820 -46.4550 243° Southwest 252 290 7,200 1,560 Climbing FlightAware
08:05PM -23.5030 -46.4820 230° Southwest 271 312 8,100 2,100 Climbing FlightAware
08:05PM -23.5130 -46.4960 232° Southwest 279 321 8,600 2,820 Climbing FlightAware
08:06PM -23.5350 -46.5280 233° Southwest 282 325 10,000 1,860 Climbing FlightAware
08:07PM -23.5740 -46.5810 231° Southwest 332 382 10,900 1,200 Climbing FlightAware
08:07PM -23.6130 -46.6370 233° Southwest 372 428 11,700 1,260 Climbing FlightAware
08:07PM -23.6200 -46.6600 252° West 388 447 12,000 2,100 Climbing FlightAware
08:08PM -23.6120 -46.7500 276° West 410 472 13,700 2,340 Climbing FlightAware
08:09PM -23.5970 -46.8420 280° West 423 487 15,500 2,400 Climbing FlightAware
08:10PM -23.5820 -46.9260 281° West 429 494 17,100 2,220 Climbing FlightAware
08:10PM -23.5680 -47.0130 280° West 438 504 18,500 2,160 Climbing FlightAware
08:11PM -23.5490 -47.1270 280° West 442 509 20,500 2,040 Climbing FlightAware
08:12PM -23.5340 -47.2160 280° West 450 518 21,700 1,860 Climbing FlightAware
08:12PM -23.5180 -47.3130 280° West 455 524 23,100 1,800 Climbing FlightAware
08:13PM -23.4890 -47.4010 290° West 464 534 24,300 1,920 Climbing FlightAware
08:14PM -23.4350 -47.4840 305° West 464 534 25,800 2,340 Climbing FlightAware
08:15PM -23.3850 -47.5570 307° West 449 517 27,600 2,280 Climbing FlightAware
08:15PM -23.3300 -47.6390 306° West 444 511 29,100 1,980 Climbing FlightAware
08:16PM -23.2900 -47.6970 307° West 439 505 30,200 1,860 Climbing FlightAware
08:17PM -23.2410 -47.7680 307° West 434 499 31,400 1,680 Climbing FlightAware
08:17PM -23.1890 -47.8440 307° West 426 490 32,600 1,380 Climbing FlightAware
08:18PM -23.1470 -47.9050 307° West 428 493 33,300 900 Climbing FlightAware
08:19PM -23.0990 -47.9760 306° West 434 499 33,800 420 Climbing FlightAware
08:20PM -23.0280 -48.0790 307° West 441 507 34,000 120 Climbing FlightAware
08:20PM -22.9770 -48.1520 307° West 442 509 34,000  Level FlightAware
08:21PM -22.9290 -48.2230 306° West 440 506 34,000  Level FlightAware
08:22PM -22.8800 -48.2940 307° West 441 507 34,000  Level FlightAware
08:22PM -22.8260 -48.3710 307° West 441 507 34,000  Level FlightAware
08:23PM -22.7820 -48.4350 307° West 441 507 34,000  Level FlightAware
08:24PM -22.7330 -48.5070 306° West 443 510 34,000  Level FlightAware
08:24PM -22.6790 -48.5840 307° West 444 511 34,000  Level FlightAware
08:25PM -22.6290 -48.6560 307° West 445 512 34,000  Level FlightAware
08:26PM -22.5740 -48.7350 307° West 446 513 34,000  Level FlightAware
08:26PM -22.5240 -48.8060 307° West 447 514 34,000  Level FlightAware
08:27PM -22.4710 -48.8820 307° West 449 517 34,000  Level FlightAware
08:28PM -22.4250 -48.9490 307° West 451 519 34,000  Level FlightAware
08:28PM -22.3750 -49.0200 307° West 452 520 34,000  Level FlightAware
08:29PM -22.3180 -49.1000 308° West 454 522 34,000  Level FlightAware
08:29PM -22.2860 -49.1380 312° West 455 524 34,000  Level FlightAware
08:31PM -22.1760 -49.2620 314° West 458 527 34,000  Level FlightAware
08:31PM -22.1110 -49.3350 314° West 459 528 34,000  Level FlightAware
08:32PM -22.0540 -49.3980 314° West 459 528 34,000  Level FlightAware
08:33PM -21.9890 -49.4700 314° West 459 528 34,000  Level FlightAware
08:33PM -21.9270 -49.5390 314° West 459 528 34,000  Level FlightAware
08:34PM -21.8740 -49.5980 314° West 459 528 34,000  Level FlightAware
08:35PM -21.8140 -49.6650 314° West 460 529 34,000  Level FlightAware
08:35PM -21.7490 -49.7370 314° West 460 529 34,000  Level FlightAware
08:36PM -21.6890 -49.8040 314° West 459 528 34,000  Level FlightAware
08:37PM -21.6250 -49.8740 315° West 459 528 34,000  Level FlightAware
08:38PM -21.5650 -49.9400 314° West 459 528 34,000  Level FlightAware
08:38PM -21.5000 -50.0120 314° West 461 531 34,000  Level FlightAware
08:39PM -21.4410 -50.0770 314° West 461 531 34,000  Level FlightAware
08:40PM -21.3820 -50.1430 314° West 461 531 34,000  Level FlightAware
08:40PM -21.3280 -50.2030 314° West 462 532 34,000  Level FlightAware
08:41PM -21.2650 -50.2720 314° West 463 533 34,000  Level FlightAware
08:42PM -21.1850 -50.3610 314° West 464 534 34,000  Level FlightAware
08:43PM -21.1120 -50.4420 314° West 463 533 34,000  Level FlightAware
08:44PM -21.0310 -50.5330 314° West 464 534 34,000  Level FlightAware
08:44PM -20.9550 -50.6170 314° West 465 535 34,000  Level FlightAware
08:45PM -20.8640 -50.7170 314° West 466 536 34,000  Level FlightAware
08:46PM -20.8010 -50.7840 315° West 468 539 34,000  Level FlightAware
08:47PM -20.7490 -50.8390 315° West 468 539 34,000  Level FlightAware
08:48PM -20.6860 -50.9060 315° West 468 539 34,000  Level FlightAware
08:48PM -20.6240 -50.9730 315° West 468 539 34,000  Level FlightAware
08:49PM -20.5780 -51.0210 316° Northwest 468 539 34,000  Level FlightAware
08:50PM -20.4430 -51.1650 315° West 474 545 34,000  Level FlightAware
08:51PM -20.3780 -51.2340 315° West 474 545 34,000  Level FlightAware
08:52PM -20.3060 -51.3110 315° West 476 548 34,000  Level FlightAware
08:52PM -20.2450 -51.3780 314° West 476 548 34,000  Level FlightAware
08:53PM -20.1470 -51.4830 315° West 478 550 34,000  Level FlightAware
08:54PM -20.0820 -51.5520 315° West 479 551 34,000  Level FlightAware
08:55PM -20.0180 -51.6210 315° West 480 552 34,000  Level FlightAware
08:55PM -19.9610 -51.6820 315° West 481 554 34,000  Level FlightAware
08:56PM -19.8980 -51.7490 315° West 482 555 34,000  Level FlightAware
08:57PM -19.8290 -51.8230 315° West 484 557 34,000  Level FlightAware
08:57PM -19.7720 -51.8840 315° West 484 557 34,000  Level FlightAware
08:58PM -19.7090 -51.9510 315° West 485 558 34,000  Level FlightAware
08:59PM -19.6390 -52.0250 315° West 487 560 34,000  Level FlightAware
08:59PM -19.5880 -52.0790 315° West 487 560 34,000  Level FlightAware
09:00PM -19.5170 -52.1540 315° West 489 563 34,000  Level FlightAware
09:00PM -19.4530 -52.2220 315° West 489 563 34,000  Level FlightAware
09:01PM -19.3820 -52.2970 315° West 490 564 34,000  Level FlightAware
09:02PM -19.3170 -52.3650 315° West 490 564 34,000  Level FlightAware
09:03PM -19.2460 -52.4410 315° West 490 564 34,000  Level FlightAware
09:03PM -19.1810 -52.5090 315° West 491 565 34,000  Level FlightAware
09:04PM -19.1230 -52.5690 316° Northwest 492 566 34,000  Level FlightAware
09:05PM -19.0580 -52.6380 315° West 492 566 34,000  Level FlightAware
09:05PM -18.9890 -52.7100 315° West 492 566 34,000  Level FlightAware
09:06PM -18.9210 -52.7810 315° West 492 566 34,000  Level FlightAware
09:07PM -18.8520 -52.8540 315° West 492 566 34,000  Level FlightAware
09:07PM -18.7840 -52.9250 315° West 492 566 34,000  Level FlightAware
09:08PM -18.7160 -52.9960 315° West 493 567 34,000  Level FlightAware
09:09PM -18.6510 -53.0640 315° West 493 567 34,000  Level FlightAware
09:09PM -18.5830 -53.1350 315° West 492 566 34,000  Level FlightAware
09:10PM -18.5130 -53.2080 315° West 490 564 34,000  Level FlightAware
09:11PM -18.4330 -53.2910 315° West 489 563 34,000  Level FlightAware
09:12PM -18.3550 -53.3720 315° West 487 560 34,000  Level FlightAware
09:12PM -18.2900 -53.4390 316° Northwest 485 558 34,000  Level FlightAware
09:13PM -18.2200 -53.5110 316° Northwest 484 557 34,000  Level FlightAware
09:14PM -18.1560 -53.5780 315° West 482 555 34,000  Level FlightAware
09:15PM -18.0880 -53.6490 315° West 481 554 34,000  Level FlightAware
09:15PM -18.0230 -53.7160 316° Northwest 478 550 34,000  Level FlightAware
09:16PM -17.9690 -53.7710 316° Northwest 477 549 34,000  Level FlightAware
09:16PM -17.9080 -53.8340 315° West 477 549 34,000  Level FlightAware
09:17PM -17.8300 -53.9140 316° Northwest 477 549 34,000  Level FlightAware
09:18PM -17.7680 -53.9780 315° West 477 549 34,000  Level FlightAware
09:19PM -17.6980 -54.0500 316° Northwest 477 549 34,000  Level FlightAware
09:20PM -17.6350 -54.1170 315° West 477 549 34,000  Level FlightAware
09:20PM -17.5850 -54.1690 315° West 477 549 34,000  Level FlightAware
09:21PM -17.5220 -54.2360 315° West 477 549 34,000  Level FlightAware
09:22PM -17.4710 -54.2880 316° Northwest 477 549 34,000  Level FlightAware
09:22PM -17.4080 -54.3550 315° West 477 549 34,000  Level FlightAware
09:23PM -17.3600 -54.4050 315° West 477 549 34,000  Level FlightAware
09:24PM -17.2950 -54.4730 315° West 477 549 34,000  Level FlightAware
09:24PM -17.2460 -54.5250 315° West 477 549 34,000  Level FlightAware
09:25PM -17.1980 -54.5750 315° West 477 549 34,000  Level FlightAware
09:26PM -17.1500 -54.6250 315° West 477 549 34,000  Level FlightAware
09:26PM -17.0870 -54.6910 315° West 477 549 34,000  Level FlightAware
09:27PM -17.0390 -54.7410 315° West 477 549 34,000  Level FlightAware
09:28PM -16.9750 -54.8080 315° West 477 549 34,000  Level FlightAware
09:30PM -16.8163 -54.9472 320° Northwest  Level Estimated
09:31PM -16.7211 -55.0306 320° Northwest  Level Estimated
09:32PM -16.6258 -55.1139 320° Northwest  Level Estimated
09:33PM -16.5305 -55.1971 320° Northwest  Level Estimated
09:34PM -16.4352 -55.2803 320° Northwest  Level Estimated
09:35PM -16.3398 -55.3633 320° Northwest  Level Estimated
09:36PM -16.2444 -55.4463 320° Northwest  Level Estimated
09:37PM -16.1490 -55.5292 320° Northwest  Level Estimated
09:38PM -16.0535 -55.6120 320° Northwest  Level Estimated
09:39PM -15.9580 -55.6948 320° Northwest  Level Estimated
09:40PM -15.8624 -55.7774 320° Northwest  Level Estimated
09:41PM -15.7669 -55.8600 320° Northwest  Level Estimated
09:42PM -15.6713 -55.9425 320° Northwest  Level Estimated
09:43PM -15.5757 -56.0250 320° Northwest  Level Estimated
09:44PM -15.4800 -56.1073 320° Northwest  Level Estimated
09:45PM -15.3843 -56.1896 320° Northwest  Level Estimated
09:46PM -15.2886 -56.2718 320° Northwest  Level Estimated
09:47PM -15.1928 -56.3539 320° Northwest  Level Estimated
09:48PM -15.0970 -56.4360 320° Northwest  Level Estimated
09:49PM -15.0012 -56.5180 320° Northwest  Level Estimated
09:50PM -14.9054 -56.5999 320° Northwest  Level Estimated
09:51PM -14.8095 -56.6817 320° Northwest  Level Estimated
09:52PM -14.7136 -56.7635 320° Northwest  Level Estimated
09:53PM -14.6177 -56.8452 321° Northwest  Level Estimated
09:54PM -14.5218 -56.9268 321° Northwest  Level Estimated
09:55PM -14.4258 -57.0083 321° Northwest  Level Estimated
09:56PM -14.3298 -57.0898 321° Northwest  Level Estimated
09:57PM -14.2337 -57.1712 321° Northwest  Level Estimated
09:58PM -14.1377 -57.2526 321° Northwest  Level Estimated
09:59PM -14.0416 -57.3338 321° Northwest  Level Estimated
10:00PM -13.9455 -57.4150 321° Northwest  Level Estimated
10:01PM -13.8493 -57.4962 321° Northwest  Level Estimated
10:02PM -13.7531 -57.5772 321° Northwest  Level Estimated
10:03PM -13.6569 -57.6582 321° Northwest  Level Estimated
10:04PM -13.5607 -57.7392 321° Northwest  Level Estimated
10:05PM -13.4645 -57.8200 321° Northwest  Level Estimated
10:06PM -13.3682 -57.9008 321° Northwest  Level Estimated
10:07PM -13.2719 -57.9816 321° Northwest  Level Estimated
10:08PM -13.1756 -58.0622 321° Northwest  Level Estimated
10:09PM -13.0792 -58.1428 321° Northwest  Level Estimated
10:10PM -12.9828 -58.2234 321° Northwest  Level Estimated
10:11PM -12.8864 -58.3039 321° Northwest  Level Estimated
10:12PM -12.7900 -58.3843 321° Northwest  Level Estimated
10:13PM -12.6935 -58.4647 321° Northwest  Level Estimated
10:14PM -12.5971 -58.5450 321° Northwest  Level Estimated
10:15PM -12.5006 -58.6252 321° Northwest  Level Estimated
10:16PM -12.4040 -58.7054 321° Northwest  Level Estimated
10:17PM -12.3075 -58.7855 321° Northwest  Level Estimated
10:18PM -12.2109 -58.8656 321° Northwest  Level Estimated
10:19PM -12.1143 -58.9456 321° Northwest  Level Estimated
10:20PM -12.0177 -59.0255 321° Northwest  Level Estimated
10:21PM -11.9211 -59.1054 321° Northwest  Level Estimated
10:22PM -11.8244 -59.1852 321° Northwest  Level Estimated
10:23PM -11.7279 -59.2649 321° Northwest  Level Estimated
10:24PM -11.6313 -59.3445 321° Northwest  Level Estimated
10:25PM -11.5348 -59.4240 321° Northwest  Level Estimated
10:26PM -11.4382 -59.5035 321° Northwest  Level Estimated
10:27PM -11.3416 -59.5829 321° Northwest  Level Estimated
10:28PM -11.2450 -59.6622 321° Northwest  Level Estimated
10:29PM -11.1483 -59.7416 321° Northwest  Level Estimated
10:30PM -11.0517 -59.8208 321° Northwest  Level Estimated
10:31PM -10.9550 -59.9000 321° Northwest  Level Estimated
10:32PM -10.8583 -59.9792 321° Northwest  Level Estimated
10:33PM -10.7615 -60.0583 321° Northwest  Level Estimated
10:34PM -10.6648 -60.1373 321° Northwest  Level Estimated
10:35PM -10.5680 -60.2163 321° Northwest  Level Estimated
10:36PM -10.4712 -60.2953 321° Northwest  Level Estimated
10:37PM -10.3744 -60.3742 321° Northwest  Level Estimated
10:38PM -10.2776 -60.4530 321° Northwest  Level Estimated
10:39PM -10.1807 -60.5318 321° Northwest  Level Estimated
10:40PM -10.0839 -60.6106 321° Northwest  Level Estimated
10:41PM -9.9870 -60.6893 321° Northwest  Level Estimated
10:42PM -9.8901 -60.7680 321° Northwest  Level Estimated
10:43PM -9.7932 -60.8466 321° Northwest  Level Estimated
10:44PM -9.6962 -60.9252 321° Northwest  Level Estimated
10:45PM -9.5993 -61.0037 321° Northwest  Level Estimated
10:46PM -9.5023 -61.0822 321° Northwest  Level Estimated
10:47PM -9.4053 -61.1606 321° Northwest  Level Estimated
10:48PM -9.3083 -61.2390 321° Northwest  Level Estimated
10:49PM -9.2113 -61.3173 321° Northwest  Level Estimated
10:50PM -9.1143 -61.3956 321° Northwest  Level Estimated
10:51PM -9.0172 -61.4739 321° Northwest  Level Estimated
10:52PM -8.9201 -61.5521 321° Northwest  Level Estimated
10:53PM -8.8230 -61.6303 321° Northwest  Level Estimated
10:54PM -8.7259 -61.7085 322° Northwest  Level Estimated
10:55PM -8.6288 -61.7865 322° Northwest  Level Estimated
10:56PM -8.5317 -61.8646 322° Northwest  Level Estimated
10:57PM -8.4345 -61.9426 322° Northwest  Level Estimated
10:58PM -8.3374 -62.0206 322° Northwest  Level Estimated
10:59PM -8.2402 -62.0985 322° Northwest  Level Estimated
11:00PM -8.1430 -62.1764 322° Northwest  Level Estimated
11:01PM -8.0458 -62.2543 322° Northwest  Level Estimated
11:02PM -7.9485 -62.3321 322° Northwest  Level Estimated
11:03PM -7.8513 -62.4099 322° Northwest  Level Estimated
11:04PM -7.7540 -62.4877 322° Northwest  Level Estimated
11:05PM -7.6568 -62.5654 322° Northwest  Level Estimated
11:06PM -7.5595 -62.6431 322° Northwest  Level Estimated
11:07PM -7.4622 -62.7207 322° Northwest  Level Estimated
11:08PM -7.3649 -62.7983 322° Northwest  Level Estimated
11:09PM -7.2675 -62.8759 322° Northwest  Level Estimated
11:10PM -7.1702 -62.9535 322° Northwest  Level Estimated
11:11PM -7.0729 -63.0310 322° Northwest  Level Estimated
11:12PM -6.9755 -63.1085 322° Northwest  Level Estimated
11:13PM -6.8781 -63.1859 322° Northwest  Level Estimated
11:14PM -6.7807 -63.2633 322° Northwest  Level Estimated
11:15PM -6.6833 -63.3407 322° Northwest  Level Estimated
11:16PM -6.5859 -63.4180 322° Northwest  Level Estimated
11:17PM -6.4885 -63.4954 322° Northwest  Level Estimated
11:18PM -6.3912 -63.5725 322° Northwest  Level Estimated
11:19PM -6.2939 -63.6497 322° Northwest  Level Estimated
11:20PM -6.1966 -63.7268 322° Northwest  Level Estimated
11:21PM -6.0993 -63.8038 322° Northwest  Level Estimated
11:22PM -6.0020 -63.8809 322° Northwest  Level Estimated
11:23PM -5.9047 -63.9579 322° Northwest  Level Estimated
11:24PM -5.8073 -64.0349 322° Northwest  Level Estimated
11:25PM -5.7100 -64.1118 322° Northwest  Level Estimated
11:26PM -5.6126 -64.1888 322° Northwest  Level Estimated
11:27PM -5.5153 -64.2657 322° Northwest  Level Estimated
11:28PM -5.4179 -64.3426 322° Northwest  Level Estimated
11:29PM -5.3205 -64.4194 322° Northwest  Level Estimated
11:30PM -5.2231 -64.4963 322° Northwest  Level Estimated
11:31PM -5.1257 -64.5731 322° Northwest  Level Estimated
11:32PM -5.0283 -64.6499 322° Northwest  Level Estimated
11:33PM -4.9309 -64.7266 322° Northwest  Level Estimated
11:34PM -4.8333 -64.8035 322° Northwest  Level Estimated
11:35PM -4.7356 -64.8804 322° Northwest  Level Estimated
11:36PM -4.6380 -64.9572 322° Northwest  Level Estimated
11:37PM -4.5404 -65.0340 322° Northwest  Level Estimated
11:38PM -4.4428 -65.1108 322° Northwest  Level Estimated
11:39PM -4.3451 -65.1876 322° Northwest  Level Estimated
11:40PM -4.2475 -65.2643 322° Northwest  Level Estimated
11:41PM -4.1498 -65.3411 322° Northwest  Level Estimated
11:42PM -4.0521 -65.4178 322° Northwest  Level Estimated
11:43PM -3.9545 -65.4945 322° Northwest  Level Estimated
11:44PM -3.8568 -65.5712 322° Northwest  Level Estimated
11:45PM -3.7591 -65.6478 322° Northwest  Level Estimated
11:46PM -3.6616 -65.7243 322° Northwest  Level Estimated
11:47PM -3.5640 -65.8008 322° Northwest  Level Estimated
11:48PM -3.4665 -65.8773 322° Northwest  Level Estimated
11:49PM -3.3690 -65.9538 322° Northwest  Level Estimated
11:50PM -3.2714 -66.0302 322° Northwest  Level Estimated
11:51PM -3.1739 -66.1066 322° Northwest  Level Estimated
11:52PM -3.0763 -66.1830 322° Northwest  Level Estimated
11:53PM -2.9787 -66.2594 322° Northwest  Level Estimated
11:54PM -2.8812 -66.3358 322° Northwest  Level Estimated
11:55PM -2.7836 -66.4122 322° Northwest  Level Estimated
11:56PM -2.6860 -66.4886 322° Northwest  Level Estimated
11:57PM -2.5884 -66.5649 322° Northwest  Level Estimated
11:58PM -2.4908 -66.6413 322° Northwest  Level Estimated
11:59PM -2.3932 -66.7176 322° Northwest  Level Estimated
12:00AM -2.2956 -66.7939 322° Northwest  Level Estimated
12:01AM -2.1980 -66.8702 322° Northwest  Level Estimated
12:02AM -2.1004 -66.9465 322° Northwest  Level Estimated
12:03AM -2.0028 -67.0228 322° Northwest  Level Estimated
12:04AM -1.9052 -67.0991 322° Northwest  Level Estimated
12:05AM -1.8076 -67.1753 322° Northwest  Level Estimated
12:06AM -1.7099 -67.2516 322° Northwest  Level Estimated
12:07AM -1.6123 -67.3279 322° Northwest  Level Estimated
12:08AM -1.5147 -67.4041 322° Northwest  Level Estimated
12:09AM -1.4171 -67.4803 322° Northwest  Level Estimated
12:10AM -1.3194 -67.5566 322° Northwest  Level Estimated
12:11AM -1.2218 -67.6328 322° Northwest  Level Estimated
12:12AM -1.1242 -67.7090 322° Northwest  Level Estimated
12:13AM -1.0265 -67.7852 322° Northwest  Level Estimated
12:14AM -0.9289 -67.8615 322° Northwest  Level Estimated
12:15AM -0.8313 -67.9377 322° Northwest  Level Estimated
12:16AM -0.7336 -68.0139 322° Northwest  Level Estimated
12:17AM -0.6360 -68.0901 322° Northwest  Level Estimated
12:18AM -0.5383 -68.1663 322° Northwest  Level Estimated
12:19AM -0.4407 -68.2425 322° Northwest  Level Estimated
12:20AM -0.3430 -68.3186 322° Northwest  Level Estimated
12:21AM -0.2454 -68.3948 322° Northwest  Level Estimated
12:22AM -0.1477 -68.4710 322° Northwest  Level Estimated
12:23AM -0.0501 -68.5472 322° Northwest  Level Estimated
12:24AM 0.0476 -68.6234 322° Northwest  Level Estimated
12:25AM 0.1452 -68.6996 322° Northwest  Level Estimated
12:26AM 0.2429 -68.7758 322° Northwest  Level Estimated
12:27AM 0.3405 -68.8520 322° Northwest  Level Estimated
12:28AM 0.4382 -68.9282 322° Northwest  Level Estimated
12:29AM 0.5358 -69.0044 322° Northwest  Level Estimated
12:30AM 0.6335 -69.0806 322° Northwest  Level Estimated
12:31AM 0.7311 -69.1568 322° Northwest  Level Estimated
12:32AM 0.8288 -69.2330 322° Northwest  Level Estimated
12:33AM 0.9264 -69.3092 322° Northwest  Level Estimated
12:34AM 1.0241 -69.3854 322° Northwest  Level Estimated
12:35AM 1.1217 -69.4616 322° Northwest  Level Estimated
12:36AM 1.2193 -69.5378 322° Northwest  Level Estimated
12:37AM 1.3170 -69.6140 322° Northwest  Level Estimated
12:38AM 1.4146 -69.6903 322° Northwest  Level Estimated
12:39AM 1.5122 -69.7665 322° Northwest  Level Estimated
12:40AM 1.6099 -69.8428 322° Northwest  Level Estimated
12:41AM 1.7075 -69.9190 322° Northwest  Level Estimated
12:42AM 1.8051 -69.9953 322° Northwest  Level Estimated
12:43AM 1.9027 -70.0715 322° Northwest  Level Estimated
12:44AM 2.0003 -70.1478 322° Northwest  Level Estimated
12:45AM 2.0979 -70.2241 322° Northwest  Level Estimated
12:46AM 2.1955 -70.3004 322° Northwest  Level Estimated
12:47AM 2.2931 -70.3767 322° Northwest  Level Estimated
12:48AM 2.3907 -70.4530 322° Northwest  Level Estimated
12:49AM 2.4883 -70.5294 322° Northwest  Level Estimated
12:50AM 2.5859 -70.6057 322° Northwest  Level Estimated
12:51AM 2.6835 -70.6821 322° Northwest  Level Estimated
12:52AM 2.7811 -70.7584 322° Northwest  Level Estimated
12:53AM 2.8787 -70.8348 322° Northwest  Level Estimated
12:54AM 2.9763 -70.9112 322° Northwest  Level Estimated
12:55AM 3.0738 -70.9876 322° Northwest  Level Estimated
12:56AM 3.1714 -71.0640 322° Northwest  Level Estimated
12:57AM 3.2689 -71.1404 322° Northwest  Level Estimated
12:58AM 3.3665 -71.2169 322° Northwest  Level Estimated
12:59AM 3.4640 -71.2933 322° Northwest  Level Estimated
01:00AM 3.5616 -71.3698 322° Northwest  Level Estimated
01:01AM 3.6591 -71.4463 322° Northwest  Level Estimated
01:02AM 3.7566 -71.5228 322° Northwest  Level Estimated
01:03AM 3.8542 -71.5993 322° Northwest  Level Estimated
01:04AM 3.9517 -71.6759 322° Northwest  Level Estimated
01:05AM 4.0492 -71.7524 322° Northwest  Level Estimated
01:06AM 4.1467 -71.8290 322° Northwest  Level Estimated
01:07AM 4.2442 -71.9056 322° Northwest  Level Estimated
01:08AM 4.3416 -71.9822 322° Northwest  Level Estimated
01:09AM 4.4391 -72.0589 322° Northwest  Level Estimated
01:10AM 4.5366 -72.1355 322° Northwest  Level Estimated
01:11AM 4.6340 -72.2122 322° Northwest  Level Estimated
01:12AM 4.7315 -72.2889 322° Northwest  Level Estimated
01:13AM 4.8289 -72.3656 322° Northwest  Level Estimated
01:14AM 4.9264 -72.4424 322° Northwest  Level Estimated
01:14AM 5.0570 -72.8450 322° Northwest 449 517 36,000  Level FlightAware
01:15AM 5.0238 -72.5191 322° Northwest  Level Estimated
01:15AM 5.1270 -72.8870 329° Northwest 447 514 36,000  Level FlightAware
01:15AM 5.2140 -72.9270 335° Northwest 444 511 36,000  Level FlightAware
01:16AM 5.2930 -72.9510 343° North 439 505 36,000  Level FlightAware
01:17AM 5.3720 -72.9660 349° North 441 507 36,000  Level FlightAware
01:18AM 5.4620 -72.9830 349° North 441 507 36,000  Level FlightAware
01:18AM 5.5440 -73.0000 348° North 442 509 36,000  Level FlightAware
01:19AM 5.6180 -73.0140 349° North 442 509 36,000  Level FlightAware
01:20AM 5.7170 -73.0340 349° North 443 510 36,000  Level FlightAware
01:20AM 5.7780 -73.0480 347° North 443 510 36,000  Level FlightAware
01:21AM 5.8600 -73.0650 348° North 443 510 36,000  Level FlightAware
01:22AM 5.9230 -73.0790 348° North 443 510 36,000  Level FlightAware
01:23AM 6.0050 -73.0960 348° North 443 510 36,000  Level FlightAware
01:23AM 6.0660 -73.1090 348° North 443 510 36,000  Level FlightAware
01:24AM 6.1480 -73.1270 348° North 443 510 36,000  Level FlightAware
01:25AM 6.2090 -73.1400 348° North 443 510 36,000  Level FlightAware
01:25AM 6.2910 -73.1570 348° North 443 510 36,000  Level FlightAware
01:27AM 6.5650 -73.2210 347° North 443 510 36,000  Level FlightAware
01:27AM 6.6450 -73.2510 340° North 443 510 36,000  Level FlightAware
01:28AM 6.7420 -73.2890 339° North 442 509 36,000  Level FlightAware
01:29AM 6.8230 -73.3190 340° North 443 510 36,000  Level FlightAware
01:30AM 6.9150 -73.3540 339° North 443 510 36,000  Level FlightAware
01:30AM 6.9900 -73.3830 339° North 443 510 36,000  Level FlightAware
01:31AM 7.0520 -73.4060 340° North 444 511 36,000  Level FlightAware
01:32AM 7.1390 -73.4390 339° North 444 511 36,000  Level FlightAware
01:32AM 7.2030 -73.4630 340° North 444 511 36,000  Level FlightAware
01:33AM 7.2620 -73.4860 339° North 444 511 36,000  Level FlightAware
01:34AM 7.3680 -73.5230 341° North 446 513 36,000  Level FlightAware
01:34AM 7.4580 -73.5560 340° North 445 512 36,000  Level FlightAware
01:35AM 7.5250 -73.5810 340° North 445 512 36,000  Level FlightAware
01:36AM 7.6040 -73.6090 341° North 446 513 36,000  Level FlightAware
01:37AM 7.7120 -73.6490 340° North 446 513 36,000  Level FlightAware
01:37AM 7.7990 -73.6800 341° North 446 513 36,000  Level FlightAware
01:38AM 7.8790 -73.7010 345° North 444 511 36,000  Level FlightAware
01:39AM 7.9770 -73.7140 353° North 443 510 36,000  Level FlightAware
01:40AM 8.0730 -73.7270 352° North 444 511 36,000  Level FlightAware
01:40AM 8.1430 -73.7360 353° North 445 512 36,000  Level FlightAware
01:41AM 8.2360 -73.7490 352° North 445 512 36,000  Level FlightAware
01:42AM 8.3160 -73.7590 353° North 445 512 36,000  Level FlightAware
01:42AM 8.4100 -73.7720 352° North 445 512 36,000  Level FlightAware
01:43AM 8.4920 -73.7830 352° North 443 510 36,000  Level FlightAware
01:44AM 8.5720 -73.7940 352° North 441 507 36,000  Level FlightAware
01:44AM 8.6640 -73.8070 352° North 439 505 36,000  Level FlightAware
01:45AM 8.7450 -73.8190 352° North 436 502 36,000  Level FlightAware
01:46AM 8.8350 -73.8310 352° North 436 502 36,000  Level FlightAware
01:47AM 8.9240 -73.8430 352° North 435 501 36,000  Level FlightAware
01:47AM 9.0040 -73.8520 354° North 437 503 36,000  Level FlightAware
01:48AM 9.0860 -73.8610 354° North 438 504 36,000  Level FlightAware
01:49AM 9.1680 -73.8710 353° North 439 505 36,000  Level FlightAware
01:49AM 9.2470 -73.8870 349° North 438 504 36,000  Level FlightAware
01:50AM 9.3260 -73.9020 349° North 436 502 36,000  Level FlightAware
01:51AM 9.4050 -73.9220 346° North 436 502 36,000  Level FlightAware
01:51AM 9.4910 -73.9440 346° North 437 503 36,000  Level FlightAware
01:52AM 9.5700 -73.9720 341° North 440 506 36,000  Level FlightAware
01:53AM 9.6460 -74.0030 338° Northwest 440 506 36,000  Level FlightAware
01:53AM 9.7310 -74.0360 339° North 442 509 36,000  Level FlightAware
01:54AM 9.7970 -74.0630 338° Northwest 443 510 36,000  Level FlightAware
01:55AM 9.8720 -74.1000 334° Northwest 444 511 36,000  Level FlightAware
01:55AM 9.9450 -74.1360 334° Northwest 445 512 36,000  Level FlightAware
01:56AM 10.0200 -74.1750 333° Northwest 446 513 36,000  Level FlightAware
01:57AM 10.0890 -74.2220 326° Northwest 444 511 36,000  Level FlightAware
01:57AM 10.1590 -74.2830 319° Northwest 445 512 36,000  Level FlightAware
01:58AM 10.2190 -74.3380 318° Northwest 445 512 36,000  Level FlightAware
01:59AM 10.2790 -74.3950 317° Northwest 445 512 36,000  Level FlightAware
02:00AM 10.3990 -74.5400 318° Northwest 444 511 36,000  Level FlightAware
02:01AM 10.4361 -74.5375 318° Northwest  Level Estimated
02:01AM 10.4480 -74.6050 307° West 439 505 36,000  Level FlightAware
02:02AM 10.5230 -74.7010 308° West 439 505 36,000  Level FlightAware
02:03AM 10.5690 -74.7600 308° West 437 503 36,000  Level FlightAware
02:03AM 10.6240 -74.8300 309° West 434 499 36,000  Level FlightAware
02:04AM 10.6810 -74.9030 308° West 435 501 36,000  Level FlightAware
02:05AM 10.7370 -74.9750 308° West 436 502 36,000  Level FlightAware
02:05AM 10.7870 -75.0400 308° West 437 503 36,000  Level FlightAware
02:06AM 10.8310 -75.0960 309° West 436 502 36,000  Level FlightAware
02:07AM 10.8810 -75.1610 308° West 435 501 36,000  Level FlightAware
02:07AM 10.9370 -75.2330 308° West 435 501 36,000  Level FlightAware
02:08AM 10.9870 -75.2970 309° West 437 503 36,000  Level FlightAware
02:09AM 11.0440 -75.3700 309° West 439 505 36,000  Level FlightAware
02:09AM 11.0880 -75.4270 308° West 442 509 36,000  Level FlightAware
02:10AM 11.1520 -75.5090 309° West 444 511 36,000  Level FlightAware
02:11AM 11.1860 -75.5530 308° West 444 511 36,000  Level FlightAware
02:12AM 11.2600 -75.6480 308° West 444 511 36,000  Level FlightAware
02:12AM 11.3170 -75.7230 308° West 444 511 36,000  Level FlightAware
02:13AM 11.3690 -75.7890 309° West 443 510 36,000  Level FlightAware
02:14AM 11.4230 -75.8600 308° West 443 510 36,000  Level FlightAware
02:16AM 11.5350 -76.0060 319° Northwest 442 509 36,000  Level FlightAware
02:17AM 11.6615 -76.0745 319° Northwest  Level Estimated
02:17AM 11.6440 -76.1480 308° West 442 509 36,000  Level FlightAware
02:18AM 11.6950 -76.2140 308° West 442 509 36,000  Level FlightAware
02:19AM 11.7330 -76.2640 308° West 442 509 36,000  Level FlightAware
02:19AM 11.7850 -76.3320 308° West 442 509 36,000  Level FlightAware
02:20AM 11.8230 -76.3820 308° West 442 509 36,000  Level FlightAware
02:21AM 11.8740 -76.4490 308° West 442 509 36,000  Level FlightAware
02:21AM 11.9140 -76.5010 308° West 442 509 36,000  Level FlightAware
02:22AM 11.9650 -76.5680 308° West 442 509 36,000  Level FlightAware
02:23AM 12.0040 -76.6190 308° West 442 509 36,000  Level FlightAware
02:24AM 12.0550 -76.6860 308° West 442 509 36,000  Level FlightAware
02:24AM 12.0940 -76.7360 309° West 442 509 36,000  Level FlightAware
02:27AM 12.3024 -76.9221 319° Northwest  Level Estimated
02:28AM 12.3956 -77.0056 319° Northwest  Level Estimated
02:29AM 12.4888 -77.0891 319° Northwest  Level Estimated
02:30AM 12.5820 -77.1726 319° Northwest  Level Estimated
02:31AM 12.6752 -77.2563 319° Northwest  Level Estimated
02:32AM 12.7683 -77.3400 319° Northwest  Level Estimated
02:33AM 12.8615 -77.4237 319° Northwest  Level Estimated
02:34AM 12.9546 -77.5075 319° Northwest  Level Estimated
02:35AM 13.0476 -77.5914 319° Northwest  Level Estimated
02:36AM 13.1407 -77.6753 319° Northwest  Level Estimated
02:37AM 13.2337 -77.7593 319° Northwest  Level Estimated
02:38AM 13.3267 -77.8434 319° Northwest  Level Estimated
02:39AM 13.4196 -77.9275 319° Northwest  Level Estimated
02:40AM 13.5126 -78.0117 319° Northwest  Level Estimated
02:41AM 13.6055 -78.0959 319° Northwest  Level Estimated
02:42AM 13.6983 -78.1803 319° Northwest  Level Estimated
02:43AM 13.7912 -78.2647 319° Northwest  Level Estimated
02:44AM 13.8840 -78.3491 319° Northwest  Level Estimated
02:45AM 13.9768 -78.4336 319° Northwest  Level Estimated
02:46AM 14.0695 -78.5182 319° Northwest  Level Estimated
02:47AM 14.1623 -78.6029 318° Northwest  Level Estimated
02:48AM 14.2550 -78.6876 318° Northwest  Level Estimated
02:49AM 14.3476 -78.7724 318° Northwest  Level Estimated
02:50AM 14.4403 -78.8573 318° Northwest  Level Estimated
02:51AM 14.5329 -78.9422 318° Northwest  Level Estimated
02:52AM 14.6255 -79.0273 318° Northwest  Level Estimated
02:53AM 14.7180 -79.1123 318° Northwest  Level Estimated
02:54AM 14.8105 -79.1975 318° Northwest  Level Estimated
02:55AM 14.9030 -79.2827 318° Northwest  Level Estimated
02:56AM 14.9955 -79.3680 318° Northwest  Level Estimated
02:57AM 15.0879 -79.4534 318° Northwest  Level Estimated
02:58AM 15.1803 -79.5389 318° Northwest  Level Estimated
02:59AM 15.2726 -79.6244 318° Northwest  Level Estimated
03:00AM 15.3650 -79.7100 318° Northwest  Level Estimated
03:01AM 15.4573 -79.7957 318° Northwest  Level Estimated
03:02AM 15.5495 -79.8814 318° Northwest  Level Estimated
03:03AM 15.6410 -79.9665 318° Northwest  Level Estimated
03:04AM 15.7314 -80.0508 318° Northwest  Level Estimated
03:05AM 15.8219 -80.1352 318° Northwest  Level Estimated
03:06AM 15.9123 -80.2196 318° Northwest  Level Estimated
03:07AM 16.0026 -80.3042 318° Northwest  Level Estimated
03:08AM 16.0930 -80.3888 318° Northwest  Level Estimated
03:09AM 16.1833 -80.4734 318° Northwest  Level Estimated
03:10AM 16.2735 -80.5582 318° Northwest  Level Estimated
03:11AM 16.3638 -80.6430 318° Northwest  Level Estimated
03:12AM 16.4540 -80.7279 318° Northwest  Level Estimated
03:13AM 16.5441 -80.8129 318° Northwest  Level Estimated
03:14AM 16.6343 -80.8980 318° Northwest  Level Estimated
03:15AM 16.7244 -80.9831 318° Northwest  Level Estimated
03:16AM 16.8144 -81.0684 318° Northwest  Level Estimated
03:17AM 16.9045 -81.1537 318° Northwest  Level Estimated
03:18AM 16.9945 -81.2391 318° Northwest  Level Estimated
03:19AM 17.0844 -81.3246 318° Northwest  Level Estimated
03:20AM 17.1743 -81.4101 318° Northwest  Level Estimated
03:21AM 17.2642 -81.4958 318° Northwest  Level Estimated
03:22AM 17.3541 -81.5815 318° Northwest  Level Estimated
03:23AM 17.4439 -81.6673 318° Northwest  Level Estimated
03:24AM 17.5337 -81.7532 318° Northwest  Level Estimated
03:25AM 17.6233 -81.8390 318° Northwest  Level Estimated
03:26AM 17.7128 -81.9249 318° Northwest  Level Estimated
03:27AM 17.8023 -82.0109 318° Northwest  Level Estimated
03:28AM 17.8918 -82.0970 318° Northwest  Level Estimated
03:29AM 17.9812 -82.1832 318° Northwest  Level Estimated
03:30AM 18.0706 -82.2695 317° Northwest  Level Estimated
03:31AM 18.1600 -82.3558 317° Northwest  Level Estimated
03:32AM 18.2493 -82.4423 317° Northwest  Level Estimated
03:33AM 18.3386 -82.5288 317° Northwest  Level Estimated
03:34AM 18.4278 -82.6154 317° Northwest  Level Estimated
03:35AM 18.5170 -82.7021 317° Northwest  Level Estimated
03:36AM 18.6062 -82.7889 317° Northwest  Level Estimated
03:37AM 18.6954 -82.8758 317° Northwest  Level Estimated
03:38AM 18.7844 -82.9628 317° Northwest  Level Estimated
03:39AM 18.8735 -83.0499 317° Northwest  Level Estimated
03:40AM 18.9625 -83.1370 317° Northwest  Level Estimated
03:41AM 19.0515 -83.2243 317° Northwest  Level Estimated
03:42AM 19.1404 -83.3116 317° Northwest  Level Estimated
03:43AM 19.2293 -83.3991 317° Northwest  Level Estimated
03:44AM 19.3181 -83.4866 317° Northwest  Level Estimated
03:45AM 19.4069 -83.5743 317° Northwest  Level Estimated
03:46AM 19.4957 -83.6620 317° Northwest  Level Estimated
03:47AM 19.5844 -83.7498 317° Northwest  Level Estimated
03:47AM 18.7060 -84.6630 317° Northwest 445 512 38,000  Level FlightAware
03:48AM 19.6730 -83.8378 317° Northwest  Level Estimated
03:48AM 18.7530 -84.7070 318° Northwest 445 512 38,000  Level FlightAware
03:48AM 18.9810 -84.9350 317° Northwest 438 504 38,000  Level FlightAware
03:49AM 19.0560 -85.0260 311° West 438 504 38,000  Level FlightAware
03:50AM 19.0990 -85.0810 310° West 438 504 38,000  Level FlightAware
03:51AM 19.1530 -85.1470 311° West 437 503 38,000  Level FlightAware
03:51AM 19.2140 -85.2210 311° West 436 502 38,000  Level FlightAware
03:52AM 19.2660 -85.2850 311° West 434 499 38,000  Level FlightAware
03:53AM 19.3260 -85.3590 311° West 433 498 38,000  Level FlightAware
03:53AM 19.3790 -85.4230 311° West 432 497 38,000  Level FlightAware
03:54AM 19.4310 -85.4880 310° West 432 497 38,000  Level FlightAware
03:55AM 19.4840 -85.5510 312° West 430 495 38,000  Level FlightAware
03:55AM 19.5350 -85.6130 311° West 431 496 38,000  Level FlightAware
03:56AM 19.5890 -85.6790 311° West 430 495 38,000  Level FlightAware
03:57AM 19.6420 -85.7430 311° West 430 495 38,000  Level FlightAware
03:57AM 19.7000 -85.8130 311° West 431 496 38,000  Level FlightAware
03:58AM 19.7530 -85.8780 311° West 433 498 38,000  Level FlightAware
03:59AM 19.8100 -85.9480 311° West 434 499 38,000  Level FlightAware
03:59AM 19.8580 -86.0070 311° West 437 503 38,000  Level FlightAware
04:00AM 19.9400 -86.0950 315° West 439 505 38,000  Level FlightAware
04:01AM 20.0070 -86.1450 325° Northwest 440 506 38,000  Level FlightAware
04:02AM 20.0800 -86.2020 324° Northwest 440 506 38,000  Level FlightAware
04:02AM 20.1470 -86.2570 322° Northwest 442 509 38,000  Level FlightAware
04:03AM 20.2050 -86.3040 323° Northwest 442 509 38,000  Level FlightAware
04:04AM 20.2740 -86.3590 323° Northwest 442 509 38,000  Level FlightAware
04:04AM 20.3400 -86.4110 324° Northwest 442 509 38,000  Level FlightAware
04:05AM 20.4130 -86.4690 323° Northwest 444 511 38,000  Level FlightAware
04:06AM 20.4770 -86.5210 323° Northwest 445 512 38,000  Level FlightAware
04:07AM 20.5440 -86.5740 323° Northwest 446 513 38,000  Level FlightAware
04:07AM 20.6180 -86.6330 323° Northwest 447 514 38,000  Level FlightAware
04:08AM 20.6890 -86.6900 323° Northwest 447 514 38,000  Level FlightAware
04:09AM 20.7560 -86.7440 323° Northwest 447 514 38,000  Level FlightAware
04:09AM 20.8290 -86.8030 323° Northwest 446 513 38,000  Level FlightAware
04:10AM 20.8940 -86.8550 323° Northwest 444 511 38,000  Level FlightAware
04:11AM 20.8670 -86.8330 143° Southeast 446 513 38,000  Level FlightAware
04:12AM 21.0020 -86.9410 323° Northwest 444 511 38,000  Level FlightAware
04:13AM 21.0680 -86.9950 323° Northwest 444 511 38,000  Level FlightAware
04:13AM 21.1240 -87.0400 323° Northwest 443 510 38,000  Level FlightAware
04:14AM 21.1880 -87.0910 323° Northwest 442 509 38,000  Level FlightAware
04:15AM 21.3340 -87.2110 321° Northwest 441 507 38,000  Level FlightAware
04:16AM 21.3539 -87.2328 321° Northwest  Level Estimated
04:17AM 21.4496 -87.3148 321° Northwest  Level Estimated
04:18AM 21.6180 -87.4410 323° Northwest 453 521 38,000  Level FlightAware
04:18AM 21.6630 -87.4770 323° Northwest 453 521 38,000  Level FlightAware
04:19AM 21.7280 -87.5300 323° Northwest 454 522 38,000  Level FlightAware
04:20AM 21.8130 -87.5990 323° Northwest 455 524 38,000  Level FlightAware
04:21AM 21.8780 -87.6520 323° Northwest 456 525 38,000  Level FlightAware
04:21AM 21.9500 -87.7110 323° Northwest 455 524 38,000  Level FlightAware
04:22AM 22.0070 -87.7580 323° Northwest 455 524 38,000  Level FlightAware
04:22AM 22.0780 -87.8160 323° Northwest 454 522 38,000  Level FlightAware
04:23AM 22.1590 -87.8830 323° Northwest 454 522 38,000  Level FlightAware
04:24AM 22.2170 -87.9310 323° Northwest 453 521 38,000  Level FlightAware
04:25AM 22.3070 -88.0050 323° Northwest 452 520 38,000  Level FlightAware
04:25AM 22.3810 -88.0660 323° Northwest 452 520 38,000  Level FlightAware
04:26AM 22.4290 -88.1060 322° Northwest 453 521 38,000  Level FlightAware
04:27AM 22.5080 -88.1710 323° Northwest 454 522 38,000  Level FlightAware
04:27AM 22.5840 -88.2340 323° Northwest 454 522 38,000  Level FlightAware
04:28AM 22.6480 -88.2870 323° Northwest 454 522 38,000  Level FlightAware
04:29AM 22.7270 -88.3530 322° Northwest 454 522 38,000  Level FlightAware
04:30AM 22.7950 -88.4090 323° Northwest 456 525 38,000  Level FlightAware
04:30AM 22.8660 -88.4690 322° Northwest 456 525 38,000  Level FlightAware
04:31AM 22.9350 -88.5260 323° Northwest 457 526 38,000  Level FlightAware
04:32AM 23.0060 -88.5850 323° Northwest 457 526 38,000  Level FlightAware
04:32AM 23.0850 -88.6510 322° Northwest 458 527 38,000  Level FlightAware
04:33AM 23.1640 -88.7180 322° Northwest 458 527 38,000  Level FlightAware
04:34AM 23.2740 -88.8090 323° Northwest 458 527 38,000  Level FlightAware
04:35AM 23.3420 -88.8680 321° Northwest 457 526 38,000  Level FlightAware
04:35AM 23.3930 -88.9110 322° Northwest 457 526 38,000  Level FlightAware
04:36AM 23.4800 -88.9830 323° Northwest 457 526 38,000  Level FlightAware
04:37AM 23.5330 -89.0280 322° Northwest 457 526 38,000  Level FlightAware
04:37AM 23.6010 -89.0860 322° Northwest 457 526 38,000  Level FlightAware
04:38AM 23.6530 -89.1310 322° Northwest 457 526 38,000  Level FlightAware
04:39AM 23.7210 -89.1890 322° Northwest 457 526 38,000  Level FlightAware
04:39AM 23.7730 -89.2330 322° Northwest 457 526 38,000  Level FlightAware
04:40AM 23.8240 -89.2770 322° Northwest 457 526 38,000  Level FlightAware
04:41AM 23.8900 -89.3320 323° Northwest 457 526 38,000  Level FlightAware
04:41AM 23.9430 -89.3780 322° Northwest 457 526 38,000  Level FlightAware
04:42AM 24.0110 -89.4370 322° Northwest 457 526 38,000  Level FlightAware
04:43AM 24.0640 -89.4810 323° Northwest 457 526 38,000  Level FlightAware
04:44AM 24.1320 -89.5400 322° Northwest 457 526 38,000  Level FlightAware
04:44AM 24.1830 -89.5830 322° Northwest 457 526 38,000  Level FlightAware
04:44AM 24.2000 -89.5980 321° Northwest 457 526 38,000  Level FlightAware
04:46AM 24.3020 -89.6850 322° Northwest 457 526 38,000  Level FlightAware
04:48AM 24.4793 -89.8502 320° Northwest  Level Estimated
04:49AM 24.5718 -89.9366 320° Northwest  Level Estimated
04:50AM 24.6642 -90.0231 320° Northwest  Level Estimated
04:51AM 24.7565 -90.1097 320° Northwest  Level Estimated
04:52AM 24.8581 -90.1834 327° Northwest  Level FlightAware Approximate
04:53AM 24.9597 -90.2572 327° Northwest  Level FlightAware Approximate
04:54AM 25.0613 -90.3312 327° Northwest  Level FlightAware Approximate
04:55AM 25.1628 -90.4053 327° Northwest  Level FlightAware Approximate
04:56AM 25.2642 -90.4795 327° Northwest  Level FlightAware Approximate
04:57AM 25.3656 -90.5538 326° Northwest  Level FlightAware Approximate
04:58AM 25.4670 -90.6283 326° Northwest  Level FlightAware Approximate
04:59AM 25.5684 -90.7029 326° Northwest  Level FlightAware Approximate
05:00AM 25.6697 -90.7776 326° Northwest  Level FlightAware Approximate
05:01AM 25.7710 -90.8524 326° Northwest  Level FlightAware Approximate
05:02AM 25.8722 -90.9274 326° Northwest  Level FlightAware Approximate
05:03AM 25.9734 -91.0025 326° Northwest  Level FlightAware Approximate
05:04AM 26.0746 -91.0777 326° Northwest  Level FlightAware Approximate
05:05AM 26.1757 -91.1531 326° Northwest  Level FlightAware Approximate
05:06AM 26.2768 -91.2286 326° Northwest  Level FlightAware Approximate
05:07AM 26.3775 -91.3061 323° Northwest  Level FlightAware Approximate
05:07AM 26.7633 -91.6242 326° Northwest 464 534 38,000  Level Houston Center
05:08AM 26.4751 -91.3873 323° Northwest  Level FlightAware Approximate
05:08AM 26.8667 -91.7022 326° Northwest 468 539 38,000  Level Houston Center
05:09AM 26.5726 -91.4685 323° Northwest  Level FlightAware Approximate
05:09AM 26.9736 -91.7989 321° Northwest 474 545 38,000  Level Houston Center
05:10AM 26.6702 -91.5499 323° Northwest  Level FlightAware Approximate
05:11AM 26.7682 -91.6305 326° Northwest  Level FlightAware Approximate
05:12AM 26.8690 -91.7068 326° Northwest  Level FlightAware Approximate
05:13AM 26.9698 -91.7833 326° Northwest  Level FlightAware Approximate
05:16AM 27.5579 -92.4024 321° Northwest 459 528 38,000  Level FlightAware ADS-B
05:16AM 27.6050 -92.4512 317° Northwest 459 528 38,000  Level FlightAware ADS-B
05:17AM 27.7368 -92.5885 317° Northwest 456 525 38,000  Level FlightAware ADS-B
05:18AM 27.7840 -92.6376 317° Northwest 456 525 38,000  Level FlightAware ADS-B
05:19AM 27.8435 -92.6998 317° Northwest 455 524 38,000  Level FlightAware ADS-B
05:20AM 27.9561 -92.8176 317° Northwest 455 524 38,000  Level FlightAware ADS-B
05:20AM 28.0131 -92.8774 317° Northwest 454 522 38,000  Level FlightAware ADS-B
05:21AM 28.0981 -92.9667 317° Northwest 454 522 38,000  Level Houston Center
05:23AM 28.1906 -93.0653 317° Northwest 455 524 38,000  Level Houston Center
05:24AM 28.2828 -93.1639 317° Northwest 455 524 38,000  Level Houston Center
05:25AM 28.3675 -93.2514 318° Northwest 450 518 38,000  Level Houston Center
05:26AM 28.4597 -93.3500 317° Northwest 454 522 38,000 -1,260 Level Houston Center
05:32AM 29.0360 -93.9670 317° Northwest 450 518 29,300 -1,320 Descending FlightAware
05:32AM 29.0830 -94.0190 316° Northwest 450 518 29,300  Level FlightAware
05:34AM 29.2060 -94.1540 316° Northwest 450 518 29,300 -3,120 Level FlightAware
05:34AM 29.2458 -94.1937 319° Northwest 410 472 23,700 -6,540 Descending FlightAware ADS-B
05:35AM 29.3271 -94.2820 317° Northwest 396 456 21,500 -2,280 Descending FlightAware ADS-B
05:35AM 29.3666 -94.3251 316° Northwest 389 448 20,300 -2,280 Descending FlightAware ADS-B
05:36AM 29.4441 -94.4096 316° Northwest 380 437 18,100 -2,280 Descending FlightAware ADS-B
05:37AM 29.4832 -94.4523 316° Northwest 376 433 16,900 -2,280 Descending FlightAware ADS-B
05:37AM 29.5212 -94.4939 316° Northwest 372 428 15,800 -2,100 Descending FlightAware ADS-B
05:38AM 29.5582 -94.5346 316° Northwest 366 421 14,800 -2,100 Descending FlightAware ADS-B
05:38AM 29.5952 -94.5751 316° Northwest 361 415 13,700 -2,220 Descending FlightAware ADS-B
05:39AM 29.6313 -94.6145 317° Northwest 356 410 12,600 -2,160 Descending FlightAware ADS-B
05:40AM 29.7027 -94.6932 316° Northwest 346 398 10,500 -1,740 Descending FlightAware ADS-B
05:40AM 29.7368 -94.7307 316° Northwest 325 374 10,000 -840 Descending FlightAware ADS-B
05:41AM 29.7527 -94.7483 316° Northwest 311 358 9,900 -420 Descending FlightAware ADS-B
05:41AM 29.7830 -94.7816 316° Northwest 286 329 9,700 -840 Descending FlightAware ADS-B
05:42AM 29.7974 -94.7974 316° Northwest 288 331 9,300 -1,620 Descending FlightAware ADS-B
05:42AM 29.8271 -94.8303 316° Northwest 289 333 8,500 -1,620 Descending FlightAware ADS-B
05:42AM 29.8418 -94.8464 316° Northwest 287 330 8,100 -1,440 Descending FlightAware ADS-B
05:43AM 29.8710 -94.8788 316° Northwest 285 328 7,400 -1,380 Descending FlightAware ADS-B
05:43AM 29.8849 -94.8941 316° Northwest 284 327 7,100 -1,260 Descending FlightAware ADS-B
05:43AM 29.8992 -94.9099 316° Northwest 282 325 6,800 -1,380 Descending FlightAware ADS-B
05:44AM 29.9136 -94.9259 316° Northwest 280 322 6,400 -1,440 Descending FlightAware ADS-B
05:44AM 29.9628 -94.9807 315° West 275 316 5,200 -1,320 Descending FlightAware ADS-B
05:44AM 29.9657 -94.9845 311° West 274 315 5,200 -900 Level FlightAware ADS-B
05:45AM 29.9726 -94.9976 296° West 267 307 5,000 -1,440 Descending FlightAware ADS-B
05:45AM 29.9752 -95.0059 287° West 265 305 4,800 -1,440 Descending FlightAware ADS-B
05:45AM 29.9768 -95.0143 280° West 263 303 4,700 -1,260 Descending FlightAware ADS-B
05:45AM 29.9776 -95.0376 271° West 257 296 4,300 -1,320 Descending FlightAware ADS-B
05:46AM 29.9781 -95.0719 271° West 245 282 3,800 -1,320 Descending FlightAware ADS-B
05:46AM 29.9780 -95.0824 269° West 243 280 3,600 -1,200 Descending FlightAware ADS-B
05:46AM 29.9776 -95.0990 268° West 240 276 3,400 -1,260 Descending FlightAware ADS-B
05:46AM 29.9776 -95.1123 270° West 237 273 3,100 -1,440 Descending FlightAware ADS-B
05:46AM 29.9778 -95.1256 271° West 233 268 2,900 -1,200 Descending FlightAware ADS-B
05:47AM 29.9775 -95.1452 269° West 228 262 2,600 -1,020 Descending FlightAware ADS-B
05:47AM 29.9775 -95.1609 270° West 224 258 2,400 -1,080 Descending FlightAware ADS-B
05:47AM 29.9776 -95.1792 270° West 215 247 2,100 -1,200 Descending FlightAware ADS-B
05:47AM 29.9776 -95.2019 270° West 209 241 1,700 -1,080 Descending FlightAware ADS-B
05:48AM 29.9776 -95.2216 270° West 183 211 1,400 -1,080 Descending FlightAware ADS-B
05:48AM 29.9776 -95.2356 270° West 166 191 1,100 -1,020 Descending FlightAware ADS-B
05:48AM 29.9776 -95.2429 270° West 158 182 1,000 -720 Descending FlightAware ADS-B
05:48AM 29.9776 -95.2502 270° West 150 173 900 -840 Descending FlightAware ADS-B
05:48AM 29.9776 -95.2553 270° West 142 163 800 -720 Descending FlightAware ADS-B
05:49AM 29.9776 -95.2634 270° West 131 151 700 -660 Descending FlightAware ADS-B
05:49AM 29.9776 -95.2686 270° West 128 147 600 -840 Descending FlightAware ADS-B
05:49AM 29.9776 -95.2743 270° West 128 147 500 -660 Descending FlightAware ADS-B
05:49AM 29.9776 -95.2816 270° West 128 147 400 -660 Descending FlightAware ADS-B
05:49AM 29.9776 -95.2929 270° West 131 151 200 -720 Descending FlightAware ADS-B